createdAt,value
2022-09-02T00:01:56.592Z,0.5
2022-09-02T00:04:03.573Z,0.5
2022-09-02T00:06:07.669Z,0.5
2022-09-02T00:08:11.801Z,0.4
2022-09-02T00:10:15.915Z,0.6
2022-09-02T00:12:20.036Z,0.5
2022-09-02T00:16:28.839Z,0.5
2022-09-02T00:18:36.320Z,0.2
2022-09-02T00:22:43.612Z,0.6
2022-09-02T00:26:51.826Z,0.5
2022-09-02T00:31:00.086Z,0.7
2022-09-02T00:41:23.609Z,0.6
2022-09-02T00:43:27.724Z,0.5
2022-09-02T00:45:31.899Z,0.8
2022-09-02T00:47:38.967Z,1.1
2022-09-02T00:49:43.077Z,0.9
2022-09-02T00:51:47.149Z,1.3
2022-09-02T00:52:50.700Z,1.4
2022-09-02T00:56:58.894Z,0.8
2022-09-02T01:01:10.290Z,0.6
2022-09-02T01:03:28.569Z,1
2022-09-02T01:07:25.066Z,0.7
2022-09-02T01:11:30.640Z,0.8
2022-09-02T01:13:34.765Z,1.3
2022-09-02T01:15:41.861Z,0.8
2022-09-02T01:17:45.970Z,0.9
2022-09-02T01:19:50.075Z,0.6
2022-09-02T01:21:54.167Z,1.1
2022-09-02T01:23:58.275Z,0.6
2022-09-02T01:26:02.370Z,0.6
2022-09-02T01:28:06.495Z,1.2
2022-09-02T01:34:21.778Z,0.9
2022-09-02T01:36:25.885Z,0.8
2022-09-02T01:38:29.971Z,0.5
2022-09-02T01:40:34.169Z,0.7
2022-09-02T01:42:38.176Z,0.9
2022-09-02T01:44:45.278Z,1
2022-09-02T01:46:49.442Z,1.2
2022-09-02T01:48:53.491Z,0.8
2022-09-02T01:49:57.030Z,0.6
2022-09-02T01:52:01.141Z,0.9
2022-09-02T01:54:05.247Z,1.1
2022-09-02T01:56:10.952Z,0.8
2022-09-02T01:58:18.004Z,0.6
2022-09-02T02:00:22.089Z,1.1
2022-09-02T02:02:26.304Z,0.8
2022-09-02T02:04:30.309Z,0.6
2022-09-02T02:06:34.405Z,0.9
2022-09-02T02:08:38.507Z,0.8
2022-09-02T02:10:42.587Z,1
2022-09-02T02:12:49.709Z,0.9
2022-09-02T02:14:53.808Z,0.9
2022-09-02T02:16:57.941Z,1
2022-09-02T02:19:02.000Z,0.7
2022-09-02T02:21:06.112Z,1
2022-09-02T02:23:10.259Z,1
2022-09-02T02:25:14.307Z,0.6
2022-09-02T02:27:21.408Z,0.9
2022-09-02T02:29:25.481Z,0.6
2022-09-02T02:31:29.677Z,0.7
2022-09-02T02:33:36.275Z,1
2022-09-02T02:35:37.761Z,1
2022-09-02T02:37:41.864Z,0.8
2022-09-02T02:39:45.973Z,0.6
2022-09-02T02:41:53.126Z,1
2022-09-02T02:43:57.166Z,1
2022-09-02T02:46:01.279Z,0.8
2022-09-02T02:47:04.819Z,0.7
2022-09-02T02:49:08.913Z,1.2
2022-09-02T02:55:24.182Z,0.7
2022-09-02T03:01:36.620Z,1.3
2022-09-02T03:05:44.715Z,1.1
2022-09-02T03:07:48.746Z,0.8
2022-09-02T03:09:55.875Z,0.6
2022-09-02T03:14:04.078Z,0.9
2022-09-02T03:18:12.245Z,0.6
2022-09-02T03:20:16.328Z,0.9
2022-09-02T03:24:27.555Z,0.7
2022-09-02T03:26:31.656Z,0.4
2022-09-02T03:28:35.747Z,0.7
2022-09-02T03:36:52.145Z,0.4
2022-09-02T03:38:59.254Z,0.8
2022-09-02T03:43:07.423Z,0.5
2022-09-02T03:45:31.733Z,0.6
2022-09-02T03:47:35.836Z,0.4
2022-09-02T03:49:39.914Z,0.6
2022-09-02T03:51:47.032Z,0.5
2022-09-02T03:53:51.131Z,0.7
2022-09-02T03:57:59.320Z,0.4
2022-09-02T04:00:03.420Z,0.5
2022-09-02T04:02:07.734Z,0.3
2022-09-02T04:04:12.119Z,0.5
2022-09-02T04:08:22.871Z,0.6
2022-09-02T04:10:26.946Z,0.2
2022-09-02T04:12:32.363Z,0.2
2022-09-02T04:18:43.372Z,0.7
2022-09-02T04:20:50.517Z,0.5
2022-09-02T04:22:54.607Z,0.3
2022-09-02T04:24:58.737Z,0.3
2022-09-02T04:29:06.937Z,0.3
2022-09-02T04:31:11.094Z,0.4
2022-09-02T04:33:15.162Z,0.6
2022-09-02T04:35:22.274Z,1.3
2022-09-02T04:37:26.409Z,0.5
2022-09-02T04:39:30.482Z,0.5
2022-09-02T04:46:46.419Z,0.6
2022-09-02T04:48:53.517Z,0.3
2022-09-02T04:50:57.635Z,0.3
2022-09-02T04:55:05.849Z,0.3
2022-09-02T04:59:14.077Z,0.3
2022-09-02T05:01:18.400Z,0.4
2022-09-02T05:07:33.528Z,0.3
2022-09-02T05:13:45.881Z,0.5
2022-09-02T05:17:57.148Z,0.4
2022-09-02T05:20:01.234Z,0.5
2022-09-02T05:22:05.388Z,0.6
2022-09-02T05:24:09.483Z,0.4
2022-09-02T05:26:13.592Z,0.4
2022-09-02T05:28:17.742Z,0.5
2022-09-02T05:32:28.991Z,0.5
2022-09-02T05:34:33.081Z,0.3
2022-09-02T05:36:37.207Z,0.4
2022-09-02T05:39:44.909Z,0.4
2022-09-02T05:41:49.003Z,0.5
2022-09-02T05:43:53.124Z,0.3
2022-09-02T05:46:00.368Z,0.3
2022-09-02T05:48:04.438Z,0.5
2022-09-02T05:50:08.559Z,0.4
2022-09-02T05:52:12.758Z,0.3
2022-09-02T05:54:16.789Z,0.5
2022-09-02T06:02:36.352Z,0.6
2022-09-02T06:06:44.542Z,0.2
2022-09-02T06:08:48.658Z,0.4
2022-09-02T06:10:52.792Z,0.3
2022-09-02T06:15:04.043Z,0.5
2022-09-02T06:17:08.194Z,0.6
2022-09-02T06:19:15.349Z,0.4
2022-09-02T06:21:16.442Z,0.6
2022-09-02T06:23:20.637Z,0.3
2022-09-02T06:25:24.683Z,0.2
2022-09-02T06:27:28.809Z,0.5
2022-09-02T06:29:35.956Z,0.3
2022-09-02T06:31:40.090Z,0.3
2022-09-02T06:33:44.246Z,0.8
2022-09-02T06:38:56.051Z,0.4
2022-09-02T06:41:00.160Z,0.3
2022-09-02T06:43:07.316Z,0.4
2022-09-02T06:45:11.476Z,0.3
2022-09-02T06:47:15.570Z,0.3
2022-09-02T06:49:19.741Z,0.2
2022-09-02T06:51:23.866Z,0.2
2022-09-02T06:53:27.969Z,0.2
2022-09-02T06:55:32.086Z,0.1
2022-09-02T06:59:43.396Z,0.4
2022-09-02T07:01:47.810Z,0.2
2022-09-02T07:05:55.797Z,0.4
2022-09-02T07:07:59.932Z,0.2
2022-09-02T07:10:04.068Z,0.2
2022-09-02T07:14:15.345Z,0.3
2022-09-02T07:16:26.905Z,0.3
2022-09-02T07:18:23.611Z,0.2
2022-09-02T07:22:32.791Z,0.3
2022-09-02T07:24:36.029Z,0.4
2022-09-02T07:26:43.172Z,0.2
2022-09-02T07:30:51.556Z,0.6
2022-09-02T07:33:15.933Z,0.3
2022-09-02T07:41:35.541Z,0.6
2022-09-02T07:43:39.678Z,0.1
2022-09-02T07:51:56.241Z,0.3
2022-09-02T07:54:04.954Z,0.3
2022-09-02T07:56:09.112Z,0.3
2022-09-02T07:58:16.054Z,0.3
2022-09-02T08:00:17.433Z,0.4
2022-09-02T08:02:21.599Z,0.3
2022-09-02T08:04:25.717Z,0.3
2022-09-02T08:06:34.469Z,0.2
2022-09-02T08:08:36.974Z,0.6
2022-09-02T08:10:41.139Z,0.4
2022-09-02T08:12:45.271Z,0.5
2022-09-02T08:14:49.481Z,0.5
2022-09-02T08:16:53.605Z,0.2
2022-09-02T08:18:57.693Z,0.3
2022-09-02T08:21:01.887Z,0.5
2022-09-02T08:23:11.563Z,0.6
2022-09-02T08:25:13.161Z,0.3
2022-09-02T08:27:17.295Z,0.5
2022-09-02T08:28:20.920Z,0.4
2022-09-02T08:30:24.992Z,1
2022-09-02T08:32:29.164Z,0.3
2022-09-02T08:34:33.304Z,0.5
2022-09-02T08:36:40.472Z,0.3
2022-09-02T08:38:44.652Z,0.2
2022-09-02T08:40:48.883Z,0.3
2022-09-02T08:42:52.921Z,0.3
2022-09-02T08:44:57.052Z,0.7
2022-09-02T08:47:01.214Z,0.1
2022-09-02T08:49:05.346Z,0.2
2022-09-02T08:51:12.528Z,0.3
2022-09-02T08:53:16.649Z,0.4
2022-09-02T08:55:20.781Z,0.7
2022-09-02T08:57:24.942Z,0.5
2022-09-02T08:59:29.109Z,0.4
2022-09-02T09:01:33.313Z,0.5
2022-09-02T09:03:37.394Z,0.5
2022-09-02T09:05:44.538Z,0.6
2022-09-02T09:07:48.696Z,0.5
2022-09-02T09:14:01.081Z,0.4
2022-09-02T09:16:05.245Z,0.4
2022-09-02T09:18:09.372Z,0.2
2022-09-02T09:20:16.512Z,0.6
2022-09-02T09:22:20.739Z,0.4
2022-09-02T09:24:24.767Z,0.3
2022-09-02T09:25:28.349Z,0.3
2022-09-02T09:27:32.486Z,0.3
2022-09-02T09:33:47.919Z,0.4
2022-09-02T09:35:52.820Z,0.4
2022-09-02T09:37:56.154Z,0.3
2022-09-02T09:40:00.293Z,0.2
2022-09-02T09:46:12.698Z,0.4
2022-09-02T09:52:28.024Z,0.3
2022-09-02T09:56:36.938Z,0.3
2022-09-02T10:00:44.670Z,0.3
2022-09-02T10:06:59.873Z,0.3
2022-09-02T10:09:03.978Z,0.2
2022-09-02T10:11:08.110Z,0.3
2022-09-02T10:15:16.382Z,0.4
2022-09-02T10:17:23.498Z,0.5
2022-09-02T10:19:27.608Z,0.4
2022-09-02T10:24:39.375Z,0.4
2022-09-02T10:26:43.487Z,0.4
2022-09-02T10:28:47.623Z,0.3
2022-09-02T10:32:58.849Z,0.4
2022-09-02T10:35:02.945Z,0.3
2022-09-02T10:37:07.120Z,0.5
2022-09-02T10:39:11.162Z,0.4
2022-09-02T10:41:15.268Z,0.5
2022-09-02T10:43:19.456Z,0.4
2022-09-02T10:45:26.512Z,1
2022-09-02T10:47:31.825Z,0.8
2022-09-02T10:51:38.791Z,0.4
2022-09-02T10:53:42.882Z,0.2
2022-09-02T10:55:46.966Z,0.4
2022-09-02T10:57:51.069Z,0.5
2022-09-02T10:59:58.185Z,0.3
2022-09-02T11:02:02.283Z,0.5
2022-09-02T11:04:06.342Z,0.5
2022-09-02T11:06:10.530Z,0.9
2022-09-02T11:08:14.596Z,0.5
2022-09-02T11:10:18.625Z,0.9
2022-09-02T11:12:22.687Z,0.7
2022-09-02T11:14:29.827Z,0.6
2022-09-02T11:16:34.123Z,0.4
2022-09-02T11:18:37.985Z,0.5
2022-09-02T11:21:02.411Z,0.7
2022-09-02T11:23:06.301Z,0.5
2022-09-02T11:25:10.360Z,0.5
2022-09-02T11:29:21.534Z,0.9
2022-09-02T11:33:29.736Z,0.7
2022-09-02T11:37:37.859Z,0.8
2022-09-02T11:39:54.402Z,0.7
2022-09-02T11:41:49.089Z,0.5
2022-09-02T11:43:53.126Z,0.7
2022-09-02T11:45:57.313Z,0.7
2022-09-02T11:48:01.233Z,0.6
2022-09-02T11:50:05.299Z,0.6
2022-09-02T11:52:09.367Z,0.5
2022-09-02T11:54:15.635Z,0.7
2022-09-02T12:02:32.698Z,0.6
2022-09-02T12:05:01.251Z,0.7
2022-09-02T12:06:40.984Z,0.9
2022-09-02T12:08:44.871Z,0.7
2022-09-02T12:12:56.064Z,0.7
2022-09-02T12:16:03.727Z,0.4
2022-09-02T12:18:07.741Z,0.7
2022-09-02T12:20:11.803Z,0.9
2022-09-02T12:22:15.876Z,0.6
2022-09-02T12:24:22.973Z,0.7
2022-09-02T12:26:27.052Z,0.7
2022-09-02T12:28:31.339Z,0.5
2022-09-02T12:30:35.199Z,0.8
2022-09-02T12:32:39.283Z,0.5
2022-09-02T12:34:43.338Z,0.7
2022-09-02T12:36:47.422Z,0.9
2022-09-02T12:38:54.534Z,0.8
2022-09-02T12:40:58.771Z,0.9
2022-09-02T12:43:02.706Z,0.4
2022-09-02T12:45:06.815Z,0.6
2022-09-02T12:49:14.947Z,0.7
2022-09-02T12:51:19.046Z,1.1
2022-09-02T12:53:26.151Z,0.6
2022-09-02T12:59:38.449Z,0.6
2022-09-02T13:01:42.717Z,0.6
2022-09-02T13:03:46.606Z,0.3
2022-09-02T13:05:50.674Z,0.5
2022-09-02T13:07:59.828Z,0.5
2022-09-02T13:10:01.892Z,0.6
2022-09-02T13:15:13.652Z,0.5
2022-09-02T13:17:35.985Z,0.6
2022-09-02T13:19:21.826Z,0.4
2022-09-02T13:21:28.953Z,0.6
2022-09-02T13:25:37.374Z,0.4
2022-09-02T13:27:41.223Z,0.6
2022-09-02T13:29:45.299Z,0.3
2022-09-02T13:31:49.389Z,0.8
2022-09-02T13:33:53.479Z,0.4
2022-09-02T13:36:00.615Z,0.5
2022-09-02T13:38:04.769Z,0.6
2022-09-02T13:40:08.819Z,0.3
2022-09-02T13:42:12.908Z,0.7
2022-09-02T13:44:17.008Z,0.6
2022-09-02T13:46:21.141Z,0.5
2022-09-02T13:50:33.896Z,1.5
2022-09-02T13:53:34.431Z,0.4
2022-09-02T13:54:42.033Z,0.4
2022-09-02T13:56:46.123Z,0.4
2022-09-02T13:58:50.194Z,0.3
2022-09-02T14:02:58.461Z,0.4
2022-09-02T14:05:05.512Z,0.5
2022-09-02T14:07:09.568Z,0.5
2022-09-02T14:09:13.781Z,0.4
2022-09-02T14:10:17.258Z,0.8
2022-09-02T14:14:25.403Z,0.5
2022-09-02T14:16:30.102Z,0.6
2022-09-02T14:18:36.619Z,0.5
2022-09-02T14:20:40.707Z,0.4
2022-09-02T14:22:44.784Z,0.4
2022-09-02T14:24:48.874Z,0.6
2022-09-02T14:26:52.972Z,0.5
2022-09-02T14:28:57.050Z,0.6
2022-09-02T14:31:01.169Z,0.8
2022-09-02T14:33:08.246Z,0.6
2022-09-02T14:35:12.336Z,0.4
2022-09-02T14:39:20.537Z,0.5
2022-09-02T14:41:24.579Z,0.5
2022-09-02T14:43:28.652Z,0.7
2022-09-02T14:45:32.709Z,0.9
2022-09-02T14:47:39.850Z,0.8
2022-09-02T14:49:43.934Z,0.4
2022-09-02T14:51:48.016Z,0.8
2022-09-02T14:53:52.103Z,0.4
2022-09-02T14:55:56.191Z,0.4
2022-09-02T14:58:00.287Z,0.8
2022-09-02T15:00:04.440Z,0.5
2022-09-02T15:02:11.518Z,0.4
2022-09-02T15:04:15.602Z,0.4
2022-09-02T15:06:19.713Z,0.4
2022-09-02T15:08:44.626Z,0.5
2022-09-02T15:10:48.061Z,1
2022-09-02T15:12:52.150Z,0.9
2022-09-02T15:14:59.270Z,0.5
2022-09-02T15:17:03.779Z,0.7
2022-09-02T15:19:07.471Z,0.4
2022-09-02T15:21:11.574Z,0.6
2022-09-02T15:23:15.673Z,0.9
2022-09-02T15:25:19.777Z,0.6
2022-09-02T15:29:31.028Z,0.4
2022-09-02T15:31:35.108Z,0.3
2022-09-02T15:33:39.234Z,0.6
2022-09-02T15:35:43.322Z,0.6
2022-09-02T15:37:47.387Z,0.5
2022-09-02T15:41:55.569Z,0.7
2022-09-02T15:44:02.733Z,0.5
2022-09-02T15:46:06.844Z,0.6
2022-09-02T15:52:19.090Z,0.5
2022-09-02T15:56:27.331Z,0.5
2022-09-02T16:00:38.525Z,0.5
2022-09-02T16:03:46.206Z,0.3
2022-09-02T16:05:50.313Z,0.7
2022-09-02T16:07:54.383Z,0.7
2022-09-02T16:10:03.161Z,0.5
2022-09-02T16:12:05.721Z,0.8
2022-09-02T16:14:09.731Z,0.7
2022-09-02T16:16:13.957Z,0.5
2022-09-02T16:18:17.945Z,0.7
2022-09-02T16:20:22.071Z,1
2022-09-02T16:22:26.216Z,0.7
2022-09-02T16:24:30.410Z,0.5
2022-09-02T16:26:37.411Z,0.9
2022-09-02T16:28:41.501Z,0.4
2022-09-02T16:30:46.446Z,0.6
2022-09-02T16:32:49.731Z,0.7
2022-09-02T16:36:57.933Z,0.6
2022-09-02T16:39:02.067Z,0.8
2022-09-02T16:41:09.210Z,0.7
2022-09-02T16:43:13.308Z,0.3
2022-09-02T16:45:17.405Z,0.7
2022-09-02T16:47:21.537Z,0.6
2022-09-02T16:49:25.636Z,0.9
2022-09-02T16:51:29.744Z,0.7
2022-09-02T16:53:33.833Z,1.1
2022-09-02T16:55:41.019Z,0.9
2022-09-02T16:57:45.109Z,1
2022-09-02T16:59:49.238Z,0.9
2022-09-02T17:00:52.904Z,1
2022-09-02T17:02:56.908Z,1
2022-09-02T17:05:01.058Z,0.9
2022-09-02T17:07:05.210Z,0.9
2022-09-02T17:09:12.308Z,0.9
2022-09-02T17:11:22.744Z,0.8
2022-09-02T17:13:20.538Z,0.9
2022-09-02T17:17:28.767Z,0.4
2022-09-02T17:21:37.082Z,0.8
2022-09-02T17:23:44.167Z,1
2022-09-02T17:25:48.314Z,0.8
2022-09-02T17:27:52.415Z,0.6
2022-09-02T17:29:56.545Z,1
2022-09-02T17:32:00.681Z,0.6
2022-09-02T17:34:04.787Z,0.7
2022-09-02T17:36:08.911Z,1.1
2022-09-02T17:38:16.056Z,1
2022-09-02T17:40:20.217Z,0.8
2022-09-02T17:42:24.353Z,0.5
2022-09-02T17:44:28.498Z,0.7
2022-09-02T17:46:32.587Z,0.8
2022-09-02T17:48:53.596Z,1.1
2022-09-02T17:50:40.879Z,1.1
2022-09-02T17:52:48.118Z,0.7
2022-09-02T17:54:52.326Z,0.8
2022-09-02T17:56:56.377Z,1
2022-09-02T17:57:59.875Z,0.8
2022-09-02T18:00:04.142Z,0.7
2022-09-02T18:02:08.187Z,0.8
2022-09-02T18:06:19.469Z,0.9
2022-09-02T18:08:23.711Z,0.8
2022-09-02T18:10:27.799Z,1
2022-09-02T18:13:05.635Z,0.8
2022-09-02T18:16:40.201Z,1
2022-09-02T18:18:44.321Z,1
2022-09-02T18:20:51.489Z,0.8
2022-09-02T18:22:55.653Z,0.8
2022-09-02T18:24:59.784Z,0.9
2022-09-02T18:27:03.930Z,1.8
2022-09-02T18:29:08.089Z,0.9
2022-09-02T18:31:12.332Z,1
2022-09-02T18:33:16.371Z,0.8
2022-09-02T18:35:23.586Z,1.1
2022-09-02T18:37:27.710Z,1.1
2022-09-02T18:39:31.912Z,1
2022-09-02T18:41:35.974Z,0.7
2022-09-02T18:43:40.142Z,0.7
2022-09-02T18:45:44.317Z,0.9
2022-09-02T18:47:48.446Z,0.7
2022-09-02T18:49:57.390Z,0.8
2022-09-02T18:51:59.761Z,0.8
2022-09-02T18:54:03.954Z,0.7
2022-09-02T18:56:28.511Z,0.8
2022-09-02T18:58:32.662Z,0.7
2022-09-02T19:00:36.846Z,0.5
2022-09-02T19:08:56.435Z,0.7
2022-09-02T19:15:08.944Z,1.5
2022-09-02T19:17:16.671Z,2.3
2022-09-02T19:19:20.228Z,1.5
2022-09-02T19:23:28.972Z,1.3
2022-09-02T19:31:48.290Z,0.9
2022-09-02T19:33:52.315Z,1.2
2022-09-02T19:35:56.475Z,1
2022-09-02T19:38:00.642Z,1
2022-09-02T19:40:04.916Z,0.9
2022-09-02T19:44:13.105Z,0.7
2022-09-02T19:46:55.732Z,0.9
2022-09-02T19:48:26.204Z,1.4
2022-09-02T19:50:30.127Z,1.3
2022-09-02T19:51:33.677Z,1.2
2022-09-02T19:53:37.810Z,1.2
2022-09-02T19:55:41.993Z,1.5
2022-09-02T19:57:46.164Z,1.1
2022-09-02T19:59:53.349Z,1.3
2022-09-02T20:01:57.504Z,1
2022-09-02T20:04:01.618Z,1.1
2022-09-02T20:06:05.749Z,0.7
2022-09-02T20:08:09.908Z,1.2
2022-09-02T20:10:14.042Z,0.9
2022-09-02T20:12:18.195Z,1.3
2022-09-02T20:16:29.615Z,0.9
2022-09-02T20:18:33.684Z,1.3
2022-09-02T20:22:42.007Z,0.5
2022-09-02T20:24:46.117Z,1
2022-09-02T20:26:50.284Z,0.8
2022-09-02T20:31:01.631Z,0.8
2022-09-02T20:37:14.091Z,1.1
2022-09-02T20:39:18.248Z,1.4
2022-09-02T20:41:22.347Z,1.4
2022-09-02T20:43:29.522Z,1.6
2022-09-02T20:45:33.676Z,2.1
2022-09-02T20:47:37.842Z,1.1
2022-09-02T20:48:41.387Z,2
2022-09-02T20:50:45.572Z,1.6
2022-09-02T20:52:49.749Z,1.8
2022-09-02T20:54:53.862Z,1.1
2022-09-02T20:57:01.082Z,0.9
2022-09-02T20:59:05.199Z,0.9
2022-09-02T21:01:09.401Z,1.2
2022-09-02T21:03:13.489Z,0.9
2022-09-02T21:05:22.139Z,1
2022-09-02T21:07:21.802Z,1
2022-09-02T21:09:25.941Z,0.9
2022-09-02T21:11:33.136Z,1.2
2022-09-02T21:13:37.301Z,0.8
2022-09-02T21:15:41.419Z,0.6
2022-09-02T21:17:48.404Z,1.2
2022-09-02T21:19:49.750Z,0.6
2022-09-02T21:21:53.892Z,0.7
2022-09-02T21:23:58.057Z,1
2022-09-02T21:26:05.228Z,1
2022-09-02T21:28:09.359Z,0.7
2022-09-02T21:30:13.519Z,0.6
2022-09-02T21:34:21.864Z,1.1
2022-09-02T21:36:26.149Z,1
2022-09-02T21:38:30.139Z,0.6
2022-09-02T21:42:41.428Z,1.1
2022-09-02T21:45:49.198Z,0.8
2022-09-02T21:47:53.343Z,0.7
2022-09-02T21:54:08.803Z,0.9
2022-09-02T22:04:29.543Z,0.9
2022-09-02T22:06:33.700Z,0.9
2022-09-02T22:08:40.876Z,0.6
2022-09-02T22:12:52.369Z,1
2022-09-02T22:23:12.946Z,0.7
2022-09-02T22:25:17.087Z,0.9
2022-09-02T22:27:21.256Z,1.1
2022-09-02T22:29:25.379Z,0.5
2022-09-02T22:31:29.706Z,0.8
2022-09-02T22:33:33.690Z,0.9
2022-09-02T22:35:37.829Z,0.7
2022-09-02T22:37:44.983Z,0.6
2022-09-02T22:39:49.248Z,0.9
2022-09-02T22:41:53.271Z,1
2022-09-02T22:44:17.311Z,0.7
2022-09-02T22:46:21.472Z,0.9
2022-09-02T22:48:25.591Z,0.8
2022-09-02T22:50:32.755Z,1.1
2022-09-02T22:52:36.895Z,0.7
2022-09-02T22:54:41.185Z,0.9
2022-09-02T22:56:45.198Z,0.9
2022-09-02T23:17:29.639Z,1.2
2022-09-02T23:19:36.785Z,0.5
2022-09-02T23:21:40.901Z,0.7
2022-09-02T23:23:45.042Z,0.8
2022-09-02T23:25:49.217Z,1.1
2022-09-02T23:27:53.344Z,1
2022-09-02T23:29:57.930Z,0.8
2022-09-02T23:32:01.634Z,0.7
2022-09-02T23:34:08.793Z,0.8
2022-09-02T23:36:12.949Z,1
2022-09-02T23:38:17.052Z,1.3
2022-09-02T23:39:20.671Z,0.8
2022-09-02T23:41:24.770Z,0.7
2022-09-02T23:43:29.031Z,0.7
2022-09-02T23:47:40.234Z,0.8
2022-09-02T23:51:48.478Z,0.8
2022-09-02T23:53:52.626Z,0.8
